sensor_id;sensor_type;location;lat;lon;timestamp;P1;durP1;ratioP1;P2;durP2;ratioP2
74530;SDS011;63010;55.668;37.878;2023-01-01T00:01:37;12.50;;;6.78;;
74530;SDS011;63010;55.668;37.878;2023-01-01T00:04:05;12.20;;;5.90;;
74530;SDS011;63010;55.668;37.878;2023-01-01T00:06:34;11.77;;;6.00;;
74530;SDS011;63010;55.668;37.878;2023-01-01T00:09:00;11.02;;;5.80;;
74530;SDS011;63010;55.668;37.878;2023-01-01T00:11:45;12.52;;;6.03;;
74530;SDS011;63010;55.668;37.878;2023-01-01T00:14:10;12.05;;;6.13;;
74530;SDS011;63010;55.668;37.878;2023-01-01T00:16:36;12.02;;;6.97;;
74530;SDS011;63010;55.668;37.878;2023-01-01T00:19:02;12.77;;;5.93;;
74530;SDS011;63010;55.668;37.878;2023-01-01T00:21:27;13.50;;;5.70;;
74530;SDS011;63010;55.668;37.878;2023-01-01T00:23:53;10.90;;;5.05;;
74530;SDS011;63010;55.668;37.878;2023-01-01T00:26:18;10.73;;;6.20;;
74530;SDS011;63010;55.668;37.878;2023-01-01T00:28:44;9.57;;;6.10;;
74530;SDS011;63010;55.668;37.878;2023-01-01T00:31:13;9.88;;;6.57;;
74530;SDS011;63010;55.668;37.878;2023-01-01T00:33:53;10.80;;;5.13;;
74530;SDS011;63010;55.668;37.878;2023-01-01T00:36:20;13.93;;;6.78;;
74530;SDS011;63010;55.668;37.878;2023-01-01T00:38:46;13.23;;;7.43;;
74530;SDS011;63010;55.668;37.878;2023-01-01T00:41:13;12.82;;;7.28;;
74530;SDS011;63010;55.668;37.878;2023-01-01T00:43:40;12.98;;;6.47;;
74530;SDS011;63010;55.668;37.878;2023-01-01T00:46:06;11.35;;;5.45;;
74530;SDS011;63010;55.668;37.878;2023-01-01T00:48:32;11.65;;;6.28;;
74530;SDS011;63010;55.668;37.878;2023-01-01T00:50:58;10.38;;;5.32;;
74530;SDS011;63010;55.668;37.878;2023-01-01T00:53:24;10.30;;;5.38;;
74530;SDS011;63010;55.668;37.878;2023-01-01T00:55:50;11.15;;;6.40;;
74530;SDS011;63010;55.668;37.878;2023-01-01T00:58:17;12.52;;;7.53;;
74530;SDS011;63010;55.668;37.878;2023-01-01T01:00:43;13.38;;;6.55;;
74530;SDS011;63010;55.668;37.878;2023-01-01T01:03:10;11.63;;;6.05;;
74530;SDS011;63010;55.668;37.878;2023-01-01T01:05:53;13.50;;;6.05;;
74530;SDS011;63010;55.668;37.878;2023-01-01T01:08:23;10.05;;;5.90;;
74530;SDS011;63010;55.668;37.878;2023-01-01T01:10:49;8.98;;;4.97;;
74530;SDS011;63010;55.668;37.878;2023-01-01T01:13:15;12.27;;;5.78;;
74530;SDS011;63010;55.668;37.878;2023-01-01T01:15:40;8.90;;;5.63;;
74530;SDS011;63010;55.668;37.878;2023-01-01T01:18:06;8.70;;;5.07;;
74530;SDS011;63010;55.668;37.878;2023-01-01T01:20:31;7.68;;;5.10;;
74530;SDS011;63010;55.668;37.878;2023-01-01T01:24:08;8.82;;;4.50;;
74530;SDS011;63010;55.668;37.878;2023-01-01T01:26:34;8.68;;;4.43;;
74530;SDS011;63010;55.668;37.878;2023-01-01T01:29:01;8.70;;;4.85;;
74530;SDS011;63010;55.668;37.878;2023-01-01T01:31:28;8.73;;;4.80;;
74530;SDS011;63010;55.668;37.878;2023-01-01T01:33:56;5.25;;;3.58;;
74530;SDS011;63010;55.668;37.878;2023-01-01T01:36:22;10.82;;;4.78;;
74530;SDS011;63010;55.668;37.878;2023-01-01T01:38:47;9.77;;;4.20;;
74530;SDS011;63010;55.668;37.878;2023-01-01T01:41:14;7.75;;;4.68;;
74530;SDS011;63010;55.668;37.878;2023-01-01T01:46:24;6.88;;;3.75;;
74530;SDS011;63010;55.668;37.878;2023-01-01T01:48:54;6.45;;;3.53;;
74530;SDS011;63010;55.668;37.878;2023-01-01T01:51:26;7.13;;;3.58;;
74530;SDS011;63010;55.668;37.878;2023-01-01T01:53:56;8.98;;;3.75;;
74530;SDS011;63010;55.668;37.878;2023-01-01T01:56:41;7.43;;;4.00;;
74530;SDS011;63010;55.668;37.878;2023-01-01T01:59:19;7.72;;;3.88;;
74530;SDS011;63010;55.668;37.878;2023-01-01T02:01:46;6.28;;;3.63;;
74530;SDS011;63010;55.668;37.878;2023-01-01T02:04:12;6.57;;;3.53;;
74530;SDS011;63010;55.668;37.878;2023-01-01T02:06:38;8.23;;;3.42;;
74530;SDS011;63010;55.668;37.878;2023-01-01T02:09:04;8.93;;;3.95;;
74530;SDS011;63010;55.668;37.878;2023-01-01T02:11:32;7.32;;;3.75;;
74530;SDS011;63010;55.668;37.878;2023-01-01T02:13:58;6.55;;;3.85;;
74530;SDS011;63010;55.668;37.878;2023-01-01T02:30:22;5.22;;;3.47;;
74530;SDS011;63010;55.668;37.878;2023-01-01T02:32:52;5.03;;;3.03;;
74530;SDS011;63010;55.668;37.878;2023-01-01T02:35:28;6.82;;;3.80;;
74530;SDS011;63010;55.668;37.878;2023-01-01T02:38:07;4.95;;;2.97;;
74530;SDS011;63010;55.668;37.878;2023-01-01T02:40:46;7.38;;;3.42;;
74530;SDS011;63010;55.668;37.878;2023-01-01T02:43:14;5.93;;;4.05;;
74530;SDS011;63010;55.668;37.878;2023-01-01T02:45:40;5.43;;;4.22;;
74530;SDS011;63010;55.668;37.878;2023-01-01T02:48:32;4.88;;;3.42;;
74530;SDS011;63010;55.668;37.878;2023-01-01T02:51:01;5.70;;;3.67;;
74530;SDS011;63010;55.668;37.878;2023-01-01T02:53:32;7.38;;;4.22;;
74530;SDS011;63010;55.668;37.878;2023-01-01T02:56:05;5.65;;;4.25;;
74530;SDS011;63010;55.668;37.878;2023-01-01T02:58:40;8.93;;;4.75;;
74530;SDS011;63010;55.668;37.878;2023-01-01T03:01:36;5.70;;;3.70;;
74530;SDS011;63010;55.668;37.878;2023-01-01T03:04:11;10.10;;;4.82;;
74530;SDS011;63010;55.668;37.878;2023-01-01T03:12:26;7.70;;;4.63;;
74530;SDS011;63010;55.668;37.878;2023-01-01T03:15:23;8.77;;;5.32;;
74530;SDS011;63010;55.668;37.878;2023-01-01T03:18:23;8.02;;;4.55;;
74530;SDS011;63010;55.668;37.878;2023-01-01T03:20:58;6.68;;;5.15;;
74530;SDS011;63010;55.668;37.878;2023-01-01T03:23:33;7.30;;;4.38;;
74530;SDS011;63010;55.668;37.878;2023-01-01T03:26:04;8.38;;;4.85;;
74530;SDS011;63010;55.668;37.878;2023-01-01T03:28:43;7.95;;;4.72;;
74530;SDS011;63010;55.668;37.878;2023-01-01T03:31:14;7.03;;;5.00;;
74530;SDS011;63010;55.668;37.878;2023-01-01T03:34:05;7.38;;;4.70;;
74530;SDS011;63010;55.668;37.878;2023-01-01T03:36:33;6.53;;;4.78;;
74530;SDS011;63010;55.668;37.878;2023-01-01T03:39:09;8.07;;;4.65;;
74530;SDS011;63010;55.668;37.878;2023-01-01T03:41:48;6.85;;;4.30;;
74530;SDS011;63010;55.668;37.878;2023-01-01T03:44:21;6.28;;;4.50;;
74530;SDS011;63010;55.668;37.878;2023-01-01T03:47:08;6.95;;;4.78;;
74530;SDS011;63010;55.668;37.878;2023-01-01T03:49:34;6.10;;;4.03;;
74530;SDS011;63010;55.668;37.878;2023-01-01T03:52:04;9.65;;;4.63;;
74530;SDS011;63010;55.668;37.878;2023-01-01T03:59:54;7.97;;;4.00;;
74530;SDS011;63010;55.668;37.878;2023-01-01T04:02:27;5.35;;;3.75;;
74530;SDS011;63010;55.668;37.878;2023-01-01T04:04:59;5.72;;;3.80;;
74530;SDS011;63010;55.668;37.878;2023-01-01T04:07:29;5.70;;;3.70;;
74530;SDS011;63010;55.668;37.878;2023-01-01T04:09:56;4.88;;;3.55;;
74530;SDS011;63010;55.668;37.878;2023-01-01T04:12:25;6.32;;;3.83;;
74530;SDS011;63010;55.668;37.878;2023-01-01T04:17:17;6.13;;;4.18;;
74530;SDS011;63010;55.668;37.878;2023-01-01T04:19:43;6.53;;;4.28;;
74530;SDS011;63010;55.668;37.878;2023-01-01T04:22:08;8.35;;;4.18;;
74530;SDS011;63010;55.668;37.878;2023-01-01T04:24:34;8.27;;;4.68;;
74530;SDS011;63010;55.668;37.878;2023-01-01T04:26:59;9.02;;;4.38;;
74530;SDS011;63010;55.668;37.878;2023-01-01T04:29:25;7.90;;;4.60;;
74530;SDS011;63010;55.668;37.878;2023-01-01T04:31:50;9.80;;;5.63;;
74530;SDS011;63010;55.668;37.878;2023-01-01T04:34:16;9.30;;;5.65;;
74530;SDS011;63010;55.668;37.878;2023-01-01T04:36:42;10.05;;;5.90;;
74530;SDS011;63010;55.668;37.878;2023-01-01T04:39:07;8.77;;;5.88;;
74530;SDS011;63010;55.668;37.878;2023-01-01T04:41:33;11.23;;;6.53;;
74530;SDS011;63010;55.668;37.878;2023-01-01T04:43:59;11.77;;;6.60;;
74530;SDS011;63010;55.668;37.878;2023-01-01T04:46:25;11.98;;;7.00;;
74530;SDS011;63010;55.668;37.878;2023-01-01T04:48:51;13.82;;;7.63;;
74530;SDS011;63010;55.668;37.878;2023-01-01T04:51:18;11.40;;;6.72;;
74530;SDS011;63010;55.668;37.878;2023-01-01T04:53:44;14.10;;;6.97;;
74530;SDS011;63010;55.668;37.878;2023-01-01T04:56:14;10.80;;;5.75;;
74530;SDS011;63010;55.668;37.878;2023-01-01T04:58:42;12.95;;;7.22;;
74530;SDS011;63010;55.668;37.878;2023-01-01T05:01:19;14.05;;;7.18;;
74530;SDS011;63010;55.668;37.878;2023-01-01T05:03:46;13.65;;;8.18;;
74530;SDS011;63010;55.668;37.878;2023-01-01T05:06:12;15.10;;;8.35;;
74530;SDS011;63010;55.668;37.878;2023-01-01T05:08:39;17.77;;;9.02;;
74530;SDS011;63010;55.668;37.878;2023-01-01T05:11:07;15.65;;;9.00;;
74530;SDS011;63010;55.668;37.878;2023-01-01T05:13:39;14.90;;;8.10;;
74530;SDS011;63010;55.668;37.878;2023-01-01T05:16:06;11.63;;;7.82;;
74530;SDS011;63010;55.668;37.878;2023-01-01T05:18:34;12.05;;;8.18;;
74530;SDS011;63010;55.668;37.878;2023-01-01T05:21:01;12.32;;;6.82;;
74530;SDS011;63010;55.668;37.878;2023-01-01T05:23:33;11.00;;;6.80;;
74530;SDS011;63010;55.668;37.878;2023-01-01T05:25:58;11.38;;;7.05;;
74530;SDS011;63010;55.668;37.878;2023-01-01T05:28:25;13.75;;;7.57;;
74530;SDS011;63010;55.668;37.878;2023-01-01T05:30:51;9.30;;;5.95;;
74530;SDS011;63010;55.668;37.878;2023-01-01T05:33:18;9.80;;;6.15;;
74530;SDS011;63010;55.668;37.878;2023-01-01T05:35:44;11.82;;;6.97;;
74530;SDS011;63010;55.668;37.878;2023-01-01T05:38:10;12.10;;;7.65;;
74530;SDS011;63010;55.668;37.878;2023-01-01T05:40:38;10.02;;;6.30;;
74530;SDS011;63010;55.668;37.878;2023-01-01T05:43:05;11.73;;;7.28;;
74530;SDS011;63010;55.668;37.878;2023-01-01T05:45:31;12.95;;;7.07;;
74530;SDS011;63010;55.668;37.878;2023-01-01T05:47:57;12.60;;;7.22;;
74530;SDS011;63010;55.668;37.878;2023-01-01T05:50:22;12.60;;;7.30;;
74530;SDS011;63010;55.668;37.878;2023-01-01T05:52:48;12.25;;;7.13;;
74530;SDS011;63010;55.668;37.878;2023-01-01T05:55:13;12.40;;;7.63;;
74530;SDS011;63010;55.668;37.878;2023-01-01T05:57:39;12.85;;;8.00;;
74530;SDS011;63010;55.668;37.878;2023-01-01T06:00:05;12.02;;;6.85;;
74530;SDS011;63010;55.668;37.878;2023-01-01T06:02:31;10.70;;;6.00;;
74530;SDS011;63010;55.668;37.878;2023-01-01T06:04:56;13.07;;;6.72;;
74530;SDS011;63010;55.668;37.878;2023-01-01T06:07:22;11.40;;;6.72;;
74530;SDS011;63010;55.668;37.878;2023-01-01T06:09:48;11.40;;;7.22;;
74530;SDS011;63010;55.668;37.878;2023-01-01T06:12:13;11.50;;;7.05;;
74530;SDS011;63010;55.668;37.878;2023-01-01T06:14:39;10.25;;;5.97;;
74530;SDS011;63010;55.668;37.878;2023-01-01T06:17:04;9.23;;;6.20;;
74530;SDS011;63010;55.668;37.878;2023-01-01T06:19:30;14.82;;;7.50;;
74530;SDS011;63010;55.668;37.878;2023-01-01T06:21:55;13.73;;;7.93;;
74530;SDS011;63010;55.668;37.878;2023-01-01T06:24:21;13.52;;;8.18;;
74530;SDS011;63010;55.668;37.878;2023-01-01T06:26:46;9.25;;;6.28;;
74530;SDS011;63010;55.668;37.878;2023-01-01T06:29:12;9.20;;;6.00;;
74530;SDS011;63010;55.668;37.878;2023-01-01T06:31:37;11.02;;;7.13;;
74530;SDS011;63010;55.668;37.878;2023-01-01T06:34:03;12.85;;;7.60;;
74530;SDS011;63010;55.668;37.878;2023-01-01T06:36:28;13.13;;;7.85;;
74530;SDS011;63010;55.668;37.878;2023-01-01T06:38:54;12.68;;;7.57;;
74530;SDS011;63010;55.668;37.878;2023-01-01T06:41:23;14.38;;;8.13;;
74530;SDS011;63010;55.668;37.878;2023-01-01T06:43:49;12.50;;;7.32;;
74530;SDS011;63010;55.668;37.878;2023-01-01T06:46:19;11.43;;;7.13;;
74530;SDS011;63010;55.668;37.878;2023-01-01T06:48:46;13.85;;;7.30;;
74530;SDS011;63010;55.668;37.878;2023-01-01T06:51:14;11.48;;;6.93;;
74530;SDS011;63010;55.668;37.878;2023-01-01T06:53:41;12.38;;;6.97;;
74530;SDS011;63010;55.668;37.878;2023-01-01T06:56:06;13.30;;;7.75;;
74530;SDS011;63010;55.668;37.878;2023-01-01T06:58:32;11.70;;;7.40;;
74530;SDS011;63010;55.668;37.878;2023-01-01T07:01:12;12.80;;;7.93;;
74530;SDS011;63010;55.668;37.878;2023-01-01T07:03:38;12.98;;;6.43;;
74530;SDS011;63010;55.668;37.878;2023-01-01T07:06:05;12.82;;;7.60;;
74530;SDS011;63010;55.668;37.878;2023-01-01T07:08:31;10.10;;;6.45;;
74530;SDS011;63010;55.668;37.878;2023-01-01T07:10:57;8.70;;;6.10;;
74530;SDS011;63010;55.668;37.878;2023-01-01T07:13:23;10.13;;;6.53;;
74530;SDS011;63010;55.668;37.878;2023-01-01T07:15:50;11.63;;;6.40;;
74530;SDS011;63010;55.668;37.878;2023-01-01T07:18:15;11.32;;;6.97;;
74530;SDS011;63010;55.668;37.878;2023-01-01T07:20:41;9.40;;;5.78;;
74530;SDS011;63010;55.668;37.878;2023-01-01T07:23:07;11.00;;;5.45;;
74530;SDS011;63010;55.668;37.878;2023-01-01T07:25:35;10.63;;;7.32;;
74530;SDS011;63010;55.668;37.878;2023-01-01T07:28:01;10.50;;;5.97;;
74530;SDS011;63010;55.668;37.878;2023-01-01T07:30:26;9.55;;;6.85;;
74530;SDS011;63010;55.668;37.878;2023-01-01T07:32:55;10.98;;;7.18;;
74530;SDS011;63010;55.668;37.878;2023-01-01T07:35:20;8.65;;;5.88;;
74530;SDS011;63010;55.668;37.878;2023-01-01T07:37:46;9.93;;;5.75;;
74530;SDS011;63010;55.668;37.878;2023-01-01T07:40:11;10.80;;;6.43;;
74530;SDS011;63010;55.668;37.878;2023-01-01T07:42:38;11.32;;;6.55;;
74530;SDS011;63010;55.668;37.878;2023-01-01T07:45:03;10.65;;;6.25;;
74530;SDS011;63010;55.668;37.878;2023-01-01T07:47:30;8.27;;;4.80;;
74530;SDS011;63010;55.668;37.878;2023-01-01T07:49:55;6.95;;;4.35;;
74530;SDS011;63010;55.668;37.878;2023-01-01T07:52:21;7.38;;;4.90;;
74530;SDS011;63010;55.668;37.878;2023-01-01T07:54:46;7.13;;;4.43;;
74530;SDS011;63010;55.668;37.878;2023-01-01T07:57:12;6.05;;;3.85;;
74530;SDS011;63010;55.668;37.878;2023-01-01T07:59:37;8.57;;;4.18;;
74530;SDS011;63010;55.668;37.878;2023-01-01T08:02:03;6.50;;;3.78;;
74530;SDS011;63010;55.668;37.878;2023-01-01T08:04:29;7.90;;;3.47;;
74530;SDS011;63010;55.668;37.878;2023-01-01T08:06:54;5.97;;;3.30;;
74530;SDS011;63010;55.668;37.878;2023-01-01T08:09:20;3.88;;;2.85;;
74530;SDS011;63010;55.668;37.878;2023-01-01T08:11:46;5.10;;;3.10;;
74530;SDS011;63010;55.668;37.878;2023-01-01T08:14:12;3.72;;;2.55;;
74530;SDS011;63010;55.668;37.878;2023-01-01T08:16:38;3.65;;;2.72;;
74530;SDS011;63010;55.668;37.878;2023-01-01T08:19:03;4.20;;;2.60;;
74530;SDS011;63010;55.668;37.878;2023-01-01T08:21:29;4.10;;;3.03;;
74530;SDS011;63010;55.668;37.878;2023-01-01T08:23:55;4.72;;;2.90;;
74530;SDS011;63010;55.668;37.878;2023-01-01T08:26:29;4.47;;;2.80;;
74530;SDS011;63010;55.668;37.878;2023-01-01T08:28:56;4.15;;;2.72;;
74530;SDS011;63010;55.668;37.878;2023-01-01T08:31:22;3.60;;;2.60;;
74530;SDS011;63010;55.668;37.878;2023-01-01T08:33:48;4.55;;;2.83;;
74530;SDS011;63010;55.668;37.878;2023-01-01T08:36:14;3.95;;;2.60;;
74530;SDS011;63010;55.668;37.878;2023-01-01T08:38:40;5.43;;;2.80;;
74530;SDS011;63010;55.668;37.878;2023-01-01T08:41:06;4.90;;;3.00;;
74530;SDS011;63010;55.668;37.878;2023-01-01T08:43:32;5.80;;;3.22;;
74530;SDS011;63010;55.668;37.878;2023-01-01T08:45:58;7.03;;;4.28;;
74530;SDS011;63010;55.668;37.878;2023-01-01T08:48:23;4.88;;;3.25;;
74530;SDS011;63010;55.668;37.878;2023-01-01T08:50:52;3.45;;;2.50;;
74530;SDS011;63010;55.668;37.878;2023-01-01T08:53:19;4.97;;;3.03;;
74530;SDS011;63010;55.668;37.878;2023-01-01T08:55:53;3.88;;;2.85;;
74530;SDS011;63010;55.668;37.878;2023-01-01T08:58:23;4.53;;;3.15;;
74530;SDS011;63010;55.668;37.878;2023-01-01T09:00:48;4.20;;;3.00;;
74530;SDS011;63010;55.668;37.878;2023-01-01T09:03:14;6.72;;;3.38;;
74530;SDS011;63010;55.668;37.878;2023-01-01T09:05:40;5.20;;;3.25;;
74530;SDS011;63010;55.668;37.878;2023-01-01T09:08:12;5.63;;;3.35;;
74530;SDS011;63010;55.668;37.878;2023-01-01T09:10:41;5.55;;;3.33;;
74530;SDS011;63010;55.668;37.878;2023-01-01T09:13:10;5.78;;;3.15;;
74530;SDS011;63010;55.668;37.878;2023-01-01T09:15:38;5.80;;;3.10;;
74530;SDS011;63010;55.668;37.878;2023-01-01T09:18:04;5.03;;;3.20;;
74530;SDS011;63010;55.668;37.878;2023-01-01T09:20:29;7.88;;;3.28;;
74530;SDS011;63010;55.668;37.878;2023-01-01T09:22:56;5.05;;;2.97;;
74530;SDS011;63010;55.668;37.878;2023-01-01T09:25:21;5.15;;;3.25;;
74530;SDS011;63010;55.668;37.878;2023-01-01T09:27:47;4.53;;;3.10;;
74530;SDS011;63010;55.668;37.878;2023-01-01T09:30:12;4.90;;;3.45;;
74530;SDS011;63010;55.668;37.878;2023-01-01T09:32:38;7.53;;;4.53;;
74530;SDS011;63010;55.668;37.878;2023-01-01T09:35:04;7.03;;;3.50;;
74530;SDS011;63010;55.668;37.878;2023-01-01T09:37:30;4.63;;;3.30;;
74530;SDS011;63010;55.668;37.878;2023-01-01T09:39:56;7.32;;;4.20;;
74530;SDS011;63010;55.668;37.878;2023-01-01T09:45:24;5.15;;;3.55;;
74530;SDS011;63010;55.668;37.878;2023-01-01T09:47:51;6.75;;;3.88;;
74530;SDS011;63010;55.668;37.878;2023-01-01T09:50:22;8.73;;;4.40;;
74530;SDS011;63010;55.668;37.878;2023-01-01T09:52:57;7.72;;;4.45;;
74530;SDS011;63010;55.668;37.878;2023-01-01T09:55:26;6.22;;;4.00;;
74530;SDS011;63010;55.668;37.878;2023-01-01T09:57:54;7.72;;;4.40;;
74530;SDS011;63010;55.668;37.878;2023-01-01T10:00:21;6.53;;;3.90;;
74530;SDS011;63010;55.668;37.878;2023-01-01T10:08:42;6.78;;;4.40;;
74530;SDS011;63010;55.668;37.878;2023-01-01T10:11:14;8.05;;;4.32;;
74530;SDS011;63010;55.668;37.878;2023-01-01T10:13:49;6.65;;;3.97;;
74530;SDS011;63010;55.668;37.878;2023-01-01T10:16:27;7.35;;;4.03;;
74530;SDS011;63010;55.668;37.878;2023-01-01T10:19:01;7.50;;;4.65;;
74530;SDS011;63010;55.668;37.878;2023-01-01T10:21:48;10.40;;;5.40;;
74530;SDS011;63010;55.668;37.878;2023-01-01T10:27:04;7.65;;;4.88;;
74530;SDS011;63010;55.668;37.878;2023-01-01T10:29:49;11.13;;;5.35;;
74530;SDS011;63010;55.668;37.878;2023-01-01T10:35:16;10.18;;;5.65;;
74530;SDS011;63010;55.668;37.878;2023-01-01T10:37:44;9.73;;;5.45;;
74530;SDS011;63010;55.668;37.878;2023-01-01T10:42:40;5.50;;;3.85;;
74530;SDS011;63010;55.668;37.878;2023-01-01T10:45:17;9.02;;;4.45;;
74530;SDS011;63010;55.668;37.878;2023-01-01T10:56:12;7.30;;;4.40;;
74530;SDS011;63010;55.668;37.878;2023-01-01T11:01:36;6.82;;;3.95;;
74530;SDS011;63010;55.668;37.878;2023-01-01T11:09:01;5.68;;;4.00;;
74530;SDS011;63010;55.668;37.878;2023-01-01T11:11:43;9.75;;;4.40;;
74530;SDS011;63010;55.668;37.878;2023-01-01T11:14:30;7.18;;;5.55;;
74530;SDS011;63010;55.668;37.878;2023-01-01T11:16:58;8.10;;;4.80;;
74530;SDS011;63010;55.668;37.878;2023-01-01T11:19:28;5.75;;;4.28;;
74530;SDS011;63010;55.668;37.878;2023-01-01T11:21:56;6.78;;;4.50;;
74530;SDS011;63010;55.668;37.878;2023-01-01T11:24:24;7.30;;;4.50;;
74530;SDS011;63010;55.668;37.878;2023-01-01T11:27:10;5.68;;;4.13;;
74530;SDS011;63010;55.668;37.878;2023-01-01T11:29:44;7.30;;;5.43;;
74530;SDS011;63010;55.668;37.878;2023-01-01T11:32:25;6.78;;;4.82;;
74530;SDS011;63010;55.668;37.878;2023-01-01T11:35:00;6.88;;;4.25;;
74530;SDS011;63010;55.668;37.878;2023-01-01T11:37:32;9.10;;;4.55;;
74530;SDS011;63010;55.668;37.878;2023-01-01T11:40:02;7.45;;;4.38;;
74530;SDS011;63010;55.668;37.878;2023-01-01T11:42:32;7.72;;;4.32;;
74530;SDS011;63010;55.668;37.878;2023-01-01T11:52:47;7.07;;;4.97;;
74530;SDS011;63010;55.668;37.878;2023-01-01T12:04:38;7.45;;;5.15;;
74530;SDS011;63010;55.668;37.878;2023-01-01T12:07:06;10.38;;;4.18;;
74530;SDS011;63010;55.668;37.878;2023-01-01T12:12:14;10.57;;;4.47;;
74530;SDS011;63010;55.668;37.878;2023-01-01T12:15:04;8.00;;;4.95;;
74530;SDS011;63010;55.668;37.878;2023-01-01T12:17:42;7.68;;;4.35;;
74530;SDS011;63010;55.668;37.878;2023-01-01T12:20:12;4.70;;;3.72;;
74530;SDS011;63010;55.668;37.878;2023-01-01T12:22:45;6.18;;;3.50;;
74530;SDS011;63010;55.668;37.878;2023-01-01T12:25:12;7.35;;;4.05;;
74530;SDS011;63010;55.668;37.878;2023-01-01T12:41:51;9.20;;;3.80;;
74530;SDS011;63010;55.668;37.878;2023-01-01T12:44:45;7.95;;;3.72;;
74530;SDS011;63010;55.668;37.878;2023-01-01T12:47:39;5.90;;;3.28;;
74530;SDS011;63010;55.668;37.878;2023-01-01T13:01:18;4.88;;;3.38;;
74530;SDS011;63010;55.668;37.878;2023-01-01T13:03:51;6.65;;;4.00;;
74530;SDS011;63010;55.668;37.878;2023-01-01T13:06:33;5.88;;;3.90;;
74530;SDS011;63010;55.668;37.878;2023-01-01T13:09:21;8.82;;;4.00;;
74530;SDS011;63010;55.668;37.878;2023-01-01T13:11:55;4.65;;;3.08;;
74530;SDS011;63010;55.668;37.878;2023-01-01T13:14:23;5.43;;;3.47;;
74530;SDS011;63010;55.668;37.878;2023-01-01T13:16:51;5.43;;;3.25;;
74530;SDS011;63010;55.668;37.878;2023-01-01T13:19:23;7.75;;;3.30;;
74530;SDS011;63010;55.668;37.878;2023-01-01T13:58:05;7.55;;;3.92;;
74530;SDS011;63010;55.668;37.878;2023-01-01T14:00:57;6.80;;;3.53;;
74530;SDS011;63010;55.668;37.878;2023-01-01T14:03:45;5.55;;;3.55;;
74530;SDS011;63010;55.668;37.878;2023-01-01T14:06:15;4.30;;;3.03;;
74530;SDS011;63010;55.668;37.878;2023-01-01T14:09:04;6.90;;;3.20;;
74530;SDS011;63010;55.668;37.878;2023-01-01T14:11:30;6.13;;;3.05;;
74530;SDS011;63010;55.668;37.878;2023-01-01T14:13:55;4.22;;;3.30;;
74530;SDS011;63010;55.668;37.878;2023-01-01T14:16:21;4.05;;;2.72;;
74530;SDS011;63010;55.668;37.878;2023-01-01T14:18:50;5.07;;;2.38;;
74530;SDS011;63010;55.668;37.878;2023-01-01T14:21:20;3.97;;;2.47;;
74530;SDS011;63010;55.668;37.878;2023-01-01T14:23:52;6.13;;;2.67;;
74530;SDS011;63010;55.668;37.878;2023-01-01T14:26:21;6.82;;;3.15;;
74530;SDS011;63010;55.668;37.878;2023-01-01T14:28:52;4.78;;;2.53;;
74530;SDS011;63010;55.668;37.878;2023-01-01T14:31:20;8.60;;;2.72;;
74530;SDS011;63010;55.668;37.878;2023-01-01T14:33:49;4.95;;;2.30;;
74530;SDS011;63010;55.668;37.878;2023-01-01T14:36:17;5.38;;;3.03;;
74530;SDS011;63010;55.668;37.878;2023-01-01T14:38:47;4.80;;;2.42;;
74530;SDS011;63010;55.668;37.878;2023-01-01T14:43:41;7.32;;;2.92;;
74530;SDS011;63010;55.668;37.878;2023-01-01T14:46:12;5.22;;;2.30;;
74530;SDS011;63010;55.668;37.878;2023-01-01T14:48:51;3.88;;;2.60;;
74530;SDS011;63010;55.668;37.878;2023-01-01T14:51:21;3.47;;;2.30;;
74530;SDS011;63010;55.668;37.878;2023-01-01T14:53:49;3.85;;;2.53;;
74530;SDS011;63010;55.668;37.878;2023-01-01T14:56:36;5.05;;;2.30;;
74530;SDS011;63010;55.668;37.878;2023-01-01T15:02:01;3.78;;;2.28;;
74530;SDS011;63010;55.668;37.878;2023-01-01T15:04:27;3.97;;;2.05;;
74530;SDS011;63010;55.668;37.878;2023-01-01T15:06:57;3.78;;;2.30;;
74530;SDS011;63010;55.668;37.878;2023-01-01T15:09:25;4.10;;;2.72;;
74530;SDS011;63010;55.668;37.878;2023-01-01T15:11:52;6.13;;;2.83;;
74530;SDS011;63010;55.668;37.878;2023-01-01T15:14:29;4.15;;;2.90;;
74530;SDS011;63010;55.668;37.878;2023-01-01T15:17:08;5.30;;;2.92;;
74530;SDS011;63010;55.668;37.878;2023-01-01T15:19:36;5.97;;;2.47;;
74530;SDS011;63010;55.668;37.878;2023-01-01T15:25:03;4.07;;;2.58;;
74530;SDS011;63010;55.668;37.878;2023-01-01T15:27:30;7.03;;;2.40;;
74530;SDS011;63010;55.668;37.878;2023-01-01T15:29:58;6.00;;;2.50;;
74530;SDS011;63010;55.668;37.878;2023-01-01T15:32:25;6.10;;;2.13;;
74530;SDS011;63010;55.668;37.878;2023-01-01T15:34:57;6.70;;;2.60;;
74530;SDS011;63010;55.668;37.878;2023-01-01T15:37:35;7.55;;;2.80;;
74530;SDS011;63010;55.668;37.878;2023-01-01T15:47:54;9.68;;;3.05;;
74530;SDS011;63010;55.668;37.878;2023-01-01T15:50:39;7.30;;;2.85;;
74530;SDS011;63010;55.668;37.878;2023-01-01T15:53:23;9.32;;;3.15;;
74530;SDS011;63010;55.668;37.878;2023-01-01T15:55:54;7.00;;;2.83;;
74530;SDS011;63010;55.668;37.878;2023-01-01T15:58:25;26.05;;;16.08;;
74530;SDS011;63010;55.668;37.878;2023-01-01T16:01:10;5.00;;;2.47;;
74530;SDS011;63010;55.668;37.878;2023-01-01T16:03:39;6.90;;;3.58;;
74530;SDS011;63010;55.668;37.878;2023-01-01T16:06:06;5.03;;;3.28;;
74530;SDS011;63010;55.668;37.878;2023-01-01T16:08:32;7.13;;;2.97;;
74530;SDS011;63010;55.668;37.878;2023-01-01T16:10:57;5.18;;;2.80;;
74530;SDS011;63010;55.668;37.878;2023-01-01T16:13:23;6.93;;;3.38;;
74530;SDS011;63010;55.668;37.878;2023-01-01T16:15:52;7.07;;;3.30;;
74530;SDS011;63010;55.668;37.878;2023-01-01T16:18:32;5.97;;;3.47;;
74530;SDS011;63010;55.668;37.878;2023-01-01T16:20:59;7.05;;;2.70;;
74530;SDS011;63010;55.668;37.878;2023-01-01T16:23:25;7.55;;;3.40;;
74530;SDS011;63010;55.668;37.878;2023-01-01T16:25:51;9.07;;;4.10;;
74530;SDS011;63010;55.668;37.878;2023-01-01T16:28:17;8.00;;;4.05;;
74530;SDS011;63010;55.668;37.878;2023-01-01T16:30:43;7.53;;;3.95;;
74530;SDS011;63010;55.668;37.878;2023-01-01T16:33:13;7.43;;;3.00;;
74530;SDS011;63010;55.668;37.878;2023-01-01T16:35:40;8.27;;;3.42;;
74530;SDS011;63010;55.668;37.878;2023-01-01T16:38:05;5.97;;;3.05;;
74530;SDS011;63010;55.668;37.878;2023-01-01T16:40:31;7.32;;;4.07;;
74530;SDS011;63010;55.668;37.878;2023-01-01T16:42:58;5.35;;;3.50;;
74530;SDS011;63010;55.668;37.878;2023-01-01T16:45:23;8.93;;;3.63;;
74530;SDS011;63010;55.668;37.878;2023-01-01T16:47:49;9.10;;;3.55;;
74530;SDS011;63010;55.668;37.878;2023-01-01T16:50:15;6.43;;;3.10;;
74530;SDS011;63010;55.668;37.878;2023-01-01T16:55:06;5.60;;;3.10;;
74530;SDS011;63010;55.668;37.878;2023-01-01T16:57:32;4.53;;;2.50;;
74530;SDS011;63010;55.668;37.878;2023-01-01T16:59:58;6.00;;;3.08;;
74530;SDS011;63010;55.668;37.878;2023-01-01T17:02:23;4.95;;;2.53;;
74530;SDS011;63010;55.668;37.878;2023-01-01T17:04:49;5.10;;;3.00;;
74530;SDS011;63010;55.668;37.878;2023-01-01T17:07:14;4.78;;;2.55;;
74530;SDS011;63010;55.668;37.878;2023-01-01T17:09:40;4.13;;;2.45;;
74530;SDS011;63010;55.668;37.878;2023-01-01T17:12:06;5.07;;;2.75;;
74530;SDS011;63010;55.668;37.878;2023-01-01T17:14:32;8.40;;;3.13;;
74530;SDS011;63010;55.668;37.878;2023-01-01T17:16:58;5.30;;;2.70;;
74530;SDS011;63010;55.668;37.878;2023-01-01T17:19:23;8.45;;;3.85;;
74530;SDS011;63010;55.668;37.878;2023-01-01T17:21:49;9.50;;;4.30;;
74530;SDS011;63010;55.668;37.878;2023-01-01T17:24:15;7.15;;;2.75;;
74530;SDS011;63010;55.668;37.878;2023-01-01T17:26:41;6.40;;;2.92;;
74530;SDS011;63010;55.668;37.878;2023-01-01T17:29:07;8.80;;;3.15;;